Terminal Aerodrome Forecast
Issued by NWS

Home | Current Version | Previous Version | Text Only | Print | Product List | Glossary Off
Versions: 1 2 3 4 5 6 7 8 9 10 11 12 13 14 15 16 17 18 19 20 21 22 23 24

000
FTUS41 KCLE 140200 AAA
TAFFDY
TAF AMD
KFDY 140227Z 1402/1424 05005KT P6SM SCT040
     FM140900 VRB03KT P6SM BKN040
     FM141600 22005KT P6SM SCT035=

USA.gov is the U.S. government's official web portal to all federal, state and local government web resources and services.